Time;durP1;ratioP1;P1;durP2;ratioP2;P2;SDS_P1;SDS_P2;PMS_P1;PMS_P2;Temp;Humidity;BMP_temperature;BMP_pressure;BME280_temperature;BME280_humidity;BME280_pressure;Samples;Min_cycle;Max_cycle;Signal;HPM_P1;HPM_P2
2022/03/09 00:00:39;;;;;;;12.18;4.20;;;4.20;94.60;;;;;;5023653;28;20132;-60
2022/03/09 00:03:05;;;;;;;9.88;4.18;;;4.20;94.40;;;;;;5020650;28;20068;-61
2022/03/09 00:05:31;;;;;;;9.70;4.32;;;4.10;94.90;;;;;;5021879;28;20053;-60
2022/03/09 00:07:56;;;;;;;10.68;3.58;;;4.10;94.70;;;;;;5021819;28;20033;-60
2022/03/09 00:10:22;;;;;;;8.07;3.40;;;4.10;94.90;;;;;;5019381;28;20042;-60
2022/03/09 00:12:47;;;;;;;9.60;4.43;;;4.10;95.00;;;;;;5026987;28;20060;-59
2022/03/09 00:15:13;;;;;;;8.13;3.78;;;4.10;94.60;;;;;;5023521;28;20513;-59
2022/03/09 00:17:39;;;;;;;10.85;4.43;;;4.10;94.90;;;;;;5020161;28;20045;-61
2022/03/09 00:20:06;;;;;;;16.27;5.00;;;4.10;95.00;;;;;;5021574;28;20486;-60
2022/03/09 00:22:31;;;;;;;7.63;3.25;;;4.10;95.30;;;;;;5021043;28;20055;-61
2022/03/09 00:24:57;;;;;;;8.88;3.60;;;4.00;95.20;;;;;;5019134;28;20034;-59
2022/03/09 00:27:22;;;;;;;13.32;3.70;;;4.00;95.40;;;;;;5020408;28;20417;-61
2022/03/09 00:29:48;;;;;;;9.25;3.90;;;4.00;95.40;;;;;;5022021;28;20034;-61
2022/03/09 00:32:14;;;;;;;9.80;3.53;;;4.00;95.40;;;;;;5020647;28;20030;-60
2022/03/09 00:34:40;;;;;;;9.15;3.70;;;3.90;95.70;;;;;;5018850;28;20042;-60
2022/03/09 00:37:06;;;;;;;7.65;4.05;;;3.80;96.20;;;;;;5026166;28;20069;-61
2022/03/09 00:39:31;;;;;;;16.67;4.00;;;3.80;96.20;;;;;;5024333;28;20048;-60
2022/03/09 00:41:57;;;;;;;7.55;3.60;;;3.80;96.50;;;;;;5022470;28;20037;-60
2022/03/09 00:44:22;;;;;;;12.88;3.63;;;3.70;96.70;;;;;;5022348;28;20113;-60
2022/03/09 00:46:48;;;;;;;9.45;3.33;;;3.60;97.00;;;;;;5025751;28;20492;-60
2022/03/09 00:49:15;;;;;;;12.65;3.67;;;3.60;96.90;;;;;;5028559;28;20041;-61
2022/03/09 00:51:40;;;;;;;7.97;3.58;;;3.70;96.70;;;;;;5025695;28;20041;-60
2022/03/09 00:54:06;;;;;;;8.50;3.53;;;3.60;96.80;;;;;;5025536;28;20359;-59
2022/03/09 00:56:33;;;;;;;9.70;4.05;;;3.60;97.30;;;;;;5028430;28;20037;-60
2022/03/09 00:58:58;;;;;;;11.35;3.88;;;3.60;96.90;;;;;;5019043;28;20512;-61
2022/03/09 01:01:24;;;;;;;10.98;4.40;;;3.60;97.00;;;;;;5020708;28;20034;-60
2022/03/09 01:03:50;;;;;;;7.82;3.20;;;3.60;96.90;;;;;;5022687;28;20047;-59
2022/03/09 01:06:15;;;;;;;12.00;3.50;;;3.60;96.90;;;;;;5022995;28;20420;-61
2022/03/09 01:08:41;;;;;;;10.35;3.80;;;3.60;96.70;;;;;;5017928;28;20042;-61
2022/03/09 01:11:07;;;;;;;8.68;3.33;;;3.50;97.50;;;;;;5021416;28;20037;-61
2022/03/09 01:13:34;;;;;;;7.50;3.17;;;3.50;97.30;;;;;;5019592;28;20044;-60
2022/03/09 01:15:59;;;;;;;10.43;4.00;;;3.50;97.20;;;;;;5020679;28;20029;-60
2022/03/09 01:18:25;;;;;;;11.98;4.10;;;3.50;97.00;;;;;;5020559;28;20040;-60
2022/03/09 01:20:50;;;;;;;17.13;4.35;;;3.50;97.30;;;;;;5018734;28;20041;-60
2022/03/09 01:23:16;;;;;;;10.82;3.85;;;3.40;97.40;;;;;;5021643;28;20034;-61
2022/03/09 01:25:41;;;;;;;9.50;3.53;;;3.40;97.40;;;;;;5017172;28;20037;-59
2022/03/09 01:28:07;;;;;;;8.68;3.42;;;3.40;97.80;;;;;;5022895;28;20029;-61
2022/03/09 01:30:33;;;;;;;9.55;3.95;;;3.30;98.10;;;;;;5025334;28;20044;-61
2022/03/09 01:32:58;;;;;;;8.48;3.70;;;3.30;98.50;;;;;;5029136;28;20033;-62
2022/03/09 01:35:24;;;;;;;10.15;3.22;;;3.30;98.20;;;;;;5028634;28;20044;-61
2022/03/09 01:37:49;;;;;;;10.77;3.75;;;3.20;98.70;;;;;;5024271;28;20049;-62
2022/03/09 01:40:16;;;;;;;7.57;3.42;;;3.20;98.70;;;;;;5018508;28;20033;-63
2022/03/09 01:42:42;;;;;;;8.98;3.72;;;3.20;98.70;;;;;;5019393;28;20026;-62
2022/03/09 01:45:12;;;;;;;9.80;3.15;;;3.10;99.50;;;;;;5021315;28;20032;-64
2022/03/09 01:47:37;;;;;;;7.53;3.17;;;3.10;99.80;;;;;;5021635;28;20692;-62
2022/03/09 01:50:05;;;;;;;9.77;4.75;;;3.10;99.80;;;;;;5017817;28;20034;-60
2022/03/09 01:52:32;;;;;;;8.32;3.72;;;3.00;99.90;;;;;;5023297;28;20045;-62
2022/03/09 01:54:57;;;;;;;11.35;4.07;;;3.00;99.90;;;;;;5026702;28;20040;-61
2022/03/09 01:57:23;;;;;;;8.23;3.70;;;3.00;99.90;;;;;;5029448;28;20037;-62
2022/03/09 01:59:50;;;;;;;8.48;3.70;;;3.00;99.90;;;;;;5023225;28;20112;-64
2022/03/09 02:02:16;;;;;;;11.32;3.50;;;3.00;99.90;;;;;;5027609;28;20128;-61
2022/03/09 02:04:43;;;;;;;10.63;4.47;;;3.00;99.90;;;;;;5027607;28;20485;-61
2022/03/09 02:07:09;;;;;;;10.85;3.42;;;2.90;99.90;;;;;;5027798;28;20072;-61
2022/03/09 02:09:41;;;;;;;9.13;3.88;;;2.90;99.90;;;;;;5027890;28;20565;-60
2022/03/09 02:12:09;;;;;;;11.13;3.85;;;2.90;99.90;;;;;;5026344;28;20129;-62
2022/03/09 02:14:46;;;;;;;8.40;4.13;;;2.80;99.90;;;;;;5028223;28;20037;-61
2022/03/09 02:17:21;;;;;;;10.18;3.55;;;2.80;99.90;;;;;;5027452;28;20041;-62
2022/03/09 02:19:49;;;;;;;9.07;4.07;;;2.70;99.90;;;;;;5027389;28;20045;-64
2022/03/09 02:22:24;;;;;;;9.50;3.38;;;2.70;99.90;;;;;;5028118;28;20037;-60
2022/03/09 02:24:51;;;;;;;7.85;3.67;;;2.70;99.90;;;;;;5027504;28;20063;-60
2022/03/09 02:27:20;;;;;;;9.48;4.40;;;2.70;99.90;;;;;;5028457;28;20029;-63
2022/03/09 02:29:50;;;;;;;9.93;4.00;;;2.70;99.90;;;;;;5027373;28;20048;-62
2022/03/09 02:32:16;;;;;;;11.82;3.50;;;2.70;99.90;;;;;;5027261;28;20044;-62
2022/03/09 02:34:42;;;;;;;9.35;3.58;;;2.70;99.90;;;;;;5032747;28;20029;-61
2022/03/09 02:37:08;;;;;;;11.63;3.67;;;2.70;99.90;;;;;;5032634;28;20087;-62
2022/03/09 02:39:34;;;;;;;13.73;3.85;;;2.70;99.90;;;;;;5031401;28;20072;-61
2022/03/09 02:42:00;;;;;;;6.72;3.03;;;2.80;99.90;;;;;;5031953;28;20049;-63
2022/03/09 02:44:25;;;;;;;9.27;3.95;;;2.70;99.90;;;;;;5032360;28;20053;-61
2022/03/09 02:46:51;;;;;;;12.43;4.38;;;2.70;99.90;;;;;;5032138;28;20037;-63
2022/03/09 02:49:17;;;;;;;5.13;3.10;;;2.70;99.90;;;;;;5031909;28;20113;-60
2022/03/09 02:51:42;;;;;;;8.48;3.85;;;2.60;99.90;;;;;;5031993;28;20493;-62
2022/03/09 02:54:08;;;;;;;7.47;3.20;;;2.60;99.90;;;;;;5041882;28;20037;-61
2022/03/09 02:56:34;;;;;;;7.60;3.58;;;2.60;99.90;;;;;;5032453;28;20068;-60
2022/03/09 02:58:59;;;;;;;7.88;3.40;;;2.50;99.90;;;;;;5031999;28;20052;-61
2022/03/09 03:01:25;;;;;;;13.93;3.83;;;2.50;99.90;;;;;;5031933;28;20120;-63
2022/03/09 03:03:51;;;;;;;8.25;3.78;;;2.50;99.90;;;;;;5032066;28;20053;-62
2022/03/09 03:06:16;;;;;;;7.25;3.45;;;2.50;99.90;;;;;;5032425;28;20079;-60
2022/03/09 03:08:42;;;;;;;7.18;3.00;;;2.40;99.90;;;;;;5032528;28;20041;-61
2022/03/09 03:11:09;;;;;;;7.05;3.47;;;2.40;99.90;;;;;;5031583;28;20381;-62
2022/03/09 03:13:41;;;;;;;10.05;4.13;;;2.30;99.90;;;;;;5030491;28;20029;-62
2022/03/09 03:16:08;;;;;;;8.80;3.25;;;2.30;99.90;;;;;;5029211;28;20034;-60
2022/03/09 03:18:34;;;;;;;9.52;3.60;;;2.30;99.90;;;;;;5031984;28;20076;-63
2022/03/09 03:21:00;;;;;;;8.52;3.63;;;2.30;99.90;;;;;;5031186;28;20541;-61
2022/03/09 03:23:28;;;;;;;17.02;3.85;;;2.30;99.90;;;;;;5032248;28;20041;-61
2022/03/09 03:25:54;;;;;;;8.32;3.90;;;2.30;99.90;;;;;;5031531;28;20057;-62
2022/03/09 03:28:21;;;;;;;11.25;3.60;;;2.40;99.90;;;;;;5031911;28;20033;-63
2022/03/09 03:30:47;;;;;;;8.02;3.95;;;2.30;99.90;;;;;;5031471;28;20068;-62
2022/03/09 03:33:14;;;;;;;9.63;4.05;;;2.20;99.90;;;;;;5031912;28;20080;-61
2022/03/09 03:35:40;;;;;;;9.70;4.47;;;2.20;99.90;;;;;;5031841;28;20037;-61
2022/03/09 03:38:06;;;;;;;8.38;3.92;;;2.20;99.90;;;;;;5031336;28;20745;-62
2022/03/09 03:40:32;;;;;;;9.88;4.05;;;2.10;99.90;;;;;;5031459;28;20033;-61
2022/03/09 03:42:58;;;;;;;10.00;3.67;;;2.10;99.90;;;;;;5030473;28;20083;-62
2022/03/09 03:45:23;;;;;;;10.40;3.40;;;2.10;99.90;;;;;;5030651;28;20041;-61
2022/03/09 03:47:50;;;;;;;11.63;4.20;;;2.00;99.90;;;;;;5031571;28;20064;-61
2022/03/09 03:50:15;;;;;;;9.43;3.53;;;2.00;99.90;;;;;;5032396;28;20119;-61
2022/03/09 03:52:41;;;;;;;10.48;4.35;;;2.00;99.90;;;;;;5036690;28;20034;-62
2022/03/09 03:55:07;;;;;;;7.43;2.92;;;2.00;99.90;;;;;;5040604;28;20362;-62
2022/03/09 03:57:32;;;;;;;11.27;3.25;;;1.90;99.90;;;;;;5038400;28;20565;-64
2022/03/09 03:59:58;;;;;;;7.03;3.40;;;1.90;99.90;;;;;;5030856;28;20037;-63
2022/03/09 04:02:24;;;;;;;11.02;3.50;;;1.90;99.90;;;;;;5031459;28;20459;-61
2022/03/09 04:04:50;;;;;;;5.70;2.92;;;1.90;99.90;;;;;;5030885;28;20041;-61
2022/03/09 04:07:16;;;;;;;9.02;3.65;;;1.90;99.90;;;;;;5031458;28;20041;-61
2022/03/09 04:09:42;;;;;;;8.38;3.60;;;1.90;99.90;;;;;;5031143;28;20037;-61
2022/03/09 04:12:08;;;;;;;8.30;3.83;;;1.90;99.90;;;;;;5030143;28;21715;-61
2022/03/09 04:14:34;;;;;;;8.32;3.78;;;1.90;99.90;;;;;;5029809;28;20030;-61
2022/03/09 04:16:59;;;;;;;10.65;4.35;;;1.80;99.90;;;;;;5030205;28;20045;-62
2022/03/09 04:19:25;;;;;;;8.90;4.25;;;1.80;99.90;;;;;;5031171;28;20060;-61
2022/03/09 04:21:51;;;;;;;9.60;3.80;;;1.70;99.90;;;;;;5030053;28;20087;-61
2022/03/09 04:24:16;;;;;;;9.88;3.95;;;1.70;99.90;;;;;;5030853;28;20060;-60
2022/03/09 04:26:42;;;;;;;9.73;4.00;;;1.70;99.90;;;;;;5030224;28;20025;-62
2022/03/09 04:29:08;;;;;;;10.32;3.63;;;1.70;99.90;;;;;;5030270;28;20041;-61
2022/03/09 04:31:33;;;;;;;10.20;4.43;;;1.70;99.90;;;;;;5030391;28;20037;-60
2022/03/09 04:33:59;;;;;;;10.35;3.60;;;1.70;99.90;;;;;;5030360;28;20084;-62
2022/03/09 04:36:24;;;;;;;8.07;3.80;;;1.70;99.90;;;;;;5029221;28;20072;-61
2022/03/09 04:38:50;;;;;;;10.32;4.40;;;1.70;99.90;;;;;;5030258;28;20703;-61
2022/03/09 04:41:16;;;;;;;8.77;4.43;;;1.70;99.90;;;;;;5030152;28;20033;-61
2022/03/09 04:43:41;;;;;;;9.07;3.75;;;1.70;99.90;;;;;;5030236;28;20611;-61
2022/03/09 04:46:07;;;;;;;6.93;3.17;;;1.70;99.90;;;;;;5049945;28;20040;-61
2022/03/09 04:48:32;;;;;;;11.18;4.05;;;1.70;99.90;;;;;;5030169;28;20124;-61
2022/03/09 04:50:58;;;;;;;10.15;4.00;;;1.60;99.90;;;;;;5027726;28;20374;-61
2022/03/09 04:53:23;;;;;;;8.10;3.67;;;1.60;99.90;;;;;;5028937;28;20082;-60
2022/03/09 04:55:49;;;;;;;9.18;3.80;;;1.60;99.90;;;;;;5027430;28;20040;-61
2022/03/09 04:58:15;;;;;;;18.73;4.90;;;1.60;99.90;;;;;;5030181;28;20149;-61
2022/03/09 05:00:40;;;;;;;8.88;4.05;;;1.60;99.90;;;;;;5029702;28;20449;-61
2022/03/09 05:03:06;;;;;;;8.55;4.00;;;1.60;99.90;;;;;;5029519;28;20079;-61
2022/03/09 05:05:31;;;;;;;9.13;3.67;;;1.60;99.90;;;;;;5030262;28;20533;-61
2022/03/09 05:07:57;;;;;;;7.60;3.50;;;1.60;99.90;;;;;;5029408;28;20042;-62
2022/03/09 05:10:22;;;;;;;10.20;3.78;;;1.60;99.90;;;;;;5029957;28;20033;-61
2022/03/09 05:12:48;;;;;;;11.10;5.00;;;1.60;99.90;;;;;;5029930;28;20033;-61
2022/03/09 05:15:14;;;;;;;8.77;3.92;;;1.50;99.90;;;;;;5029561;28;20045;-62
2022/03/09 05:17:41;;;;;;;11.60;4.68;;;1.50;99.90;;;;;;5029599;28;20117;-62
2022/03/09 05:20:08;;;;;;;9.65;4.10;;;1.50;99.90;;;;;;5029254;28;20116;-61
2022/03/09 05:22:33;;;;;;;11.00;4.18;;;1.50;99.90;;;;;;5027689;28;20045;-60
2022/03/09 05:24:59;;;;;;;12.73;4.00;;;1.50;99.90;;;;;;5029225;28;20030;-60
2022/03/09 05:27:27;;;;;;;9.57;3.88;;;1.50;99.90;;;;;;5029346;28;20042;-62
2022/03/09 05:29:53;;;;;;;10.23;3.55;;;1.50;99.90;;;;;;5027321;28;20112;-61
2022/03/09 05:32:19;;;;;;;10.30;3.80;;;1.50;99.90;;;;;;5029323;28;20512;-61
2022/03/09 05:34:46;;;;;;;13.73;4.47;;;1.50;99.90;;;;;;5028219;28;20091;-61
2022/03/09 05:37:12;;;;;;;11.52;4.30;;;1.40;99.90;;;;;;5027390;28;20045;-62
2022/03/09 05:39:38;;;;;;;10.70;4.07;;;1.40;99.90;;;;;;5029066;28;20049;-62
2022/03/09 05:42:04;;;;;;;13.88;4.03;;;1.40;99.90;;;;;;5028550;28;20045;-60
2022/03/09 05:44:30;;;;;;;9.23;4.18;;;1.40;99.90;;;;;;5029535;28;20417;-63
2022/03/09 05:46:57;;;;;;;9.35;4.00;;;1.40;99.90;;;;;;5028921;28;20017;-61
2022/03/09 05:49:22;;;;;;;16.35;4.00;;;1.40;99.90;;;;;;5029349;28;20139;-61
2022/03/09 05:51:49;;;;;;;11.73;4.32;;;1.40;99.90;;;;;;5028581;28;20482;-61
2022/03/09 05:54:15;;;;;;;10.85;4.22;;;1.30;99.90;;;;;;5027286;28;20037;-63
2022/03/09 05:56:41;;;;;;;9.35;3.35;;;1.40;99.90;;;;;;5029231;28;20041;-61
2022/03/09 05:59:07;;;;;;;10.30;3.75;;;1.30;99.90;;;;;;5028777;28;20505;-61
2022/03/09 06:01:33;;;;;;;9.95;3.75;;;1.30;99.90;;;;;;5027408;28;20029;-61
2022/03/09 06:03:58;;;;;;;9.05;3.95;;;1.30;99.90;;;;;;5028540;28;20025;-61
2022/03/09 06:06:24;;;;;;;10.10;3.78;;;1.30;99.90;;;;;;5029283;28;20039;-61
2022/03/09 06:08:49;;;;;;;11.77;3.85;;;1.30;99.90;;;;;;5026224;28;20029;-60
2022/03/09 06:11:15;;;;;;;11.00;4.60;;;1.20;99.90;;;;;;5028665;28;20437;-62
2022/03/09 06:13:41;;;;;;;12.35;4.88;;;1.20;99.90;;;;;;5044066;28;20045;-64
2022/03/09 06:16:06;;;;;;;12.40;4.32;;;1.20;99.90;;;;;;5028176;28;20033;-60
2022/03/09 06:18:32;;;;;;;12.82;4.93;;;1.20;99.90;;;;;;5025856;28;20041;-60
2022/03/09 06:20:58;;;;;;;12.77;5.18;;;1.30;99.90;;;;;;5021937;28;20035;-61
2022/03/09 06:23:23;;;;;;;11.07;4.75;;;1.20;99.90;;;;;;5022480;28;20040;-62
2022/03/09 06:25:49;;;;;;;17.27;7.00;;;1.30;99.90;;;;;;5023218;28;20091;-61
2022/03/09 06:28:15;;;;;;;15.63;6.38;;;1.30;99.90;;;;;;5020360;28;20087;-61
2022/03/09 06:30:40;;;;;;;13.27;5.22;;;1.30;99.90;;;;;;5028576;28;20029;-61
2022/03/09 06:33:06;;;;;;;13.52;5.57;;;1.30;99.90;;;;;;5028341;28;20032;-63
2022/03/09 06:35:32;;;;;;;12.60;5.40;;;1.30;99.90;;;;;;5029193;28;20034;-61
2022/03/09 06:37:58;;;;;;;15.60;4.55;;;1.40;99.90;;;;;;5028089;28;20425;-61
2022/03/09 06:40:23;;;;;;;15.55;5.68;;;1.40;99.90;;;;;;5028749;28;20041;-61
2022/03/09 06:42:49;;;;;;;9.20;4.32;;;1.40;99.90;;;;;;5024854;28;20053;-65
2022/03/09 06:45:16;;;;;;;29.83;5.82;;;1.50;99.90;;;;;;5021697;28;20041;-62
2022/03/09 06:47:42;;;;;;;11.52;4.60;;;1.50;99.90;;;;;;5023608;28;20054;-61
2022/03/09 06:50:09;;;;;;;12.82;4.18;;;1.60;99.90;;;;;;5025733;28;20068;-61
2022/03/09 06:52:35;;;;;;;13.65;4.22;;;1.70;99.90;;;;;;5024066;28;20046;-60
2022/03/09 06:55:04;;;;;;;15.05;4.63;;;1.80;99.90;;;;;;5023350;28;20495;-60
2022/03/09 06:57:31;;;;;;;11.85;5.32;;;1.80;99.90;;;;;;5025967;28;20041;-60
2022/03/09 06:59:56;;;;;;;20.15;5.05;;;1.80;99.90;;;;;;5026556;28;20133;-61
2022/03/09 07:02:23;;;;;;;14.60;4.97;;;1.80;99.90;;;;;;5029466;28;20133;-63
2022/03/09 07:04:48;;;;;;;11.88;4.32;;;1.90;99.90;;;;;;5033309;28;20404;-64
2022/03/09 07:07:14;;;;;;;13.18;4.72;;;1.90;99.90;;;;;;5032833;28;20038;-61
2022/03/09 07:09:40;;;;;;;11.77;4.50;;;2.00;99.90;;;;;;5025738;28;20038;-61
2022/03/09 07:12:06;;;;;;;12.20;4.38;;;2.00;99.90;;;;;;5021233;28;20033;-61
2022/03/09 07:14:31;;;;;;;20.60;4.65;;;2.10;99.90;;;;;;5024924;28;20399;-62
2022/03/09 07:16:57;;;;;;;11.18;4.57;;;2.10;99.90;;;;;;5026131;28;20034;-63
2022/03/09 07:19:22;;;;;;;10.40;4.57;;;2.20;99.90;;;;;;5028655;28;20064;-63
2022/03/09 07:21:48;;;;;;;12.23;4.50;;;2.20;99.90;;;;;;5028940;28;20091;-62
2022/03/09 07:24:14;;;;;;;17.63;4.53;;;2.30;99.90;;;;;;5030103;28;20041;-62
2022/03/09 07:26:41;;;;;;;9.98;4.13;;;2.50;99.90;;;;;;5030475;28;20046;-63
2022/03/09 07:29:08;;;;;;;9.70;3.90;;;2.60;99.90;;;;;;5028394;28;20026;-61
2022/03/09 07:31:35;;;;;;;11.75;4.50;;;2.80;99.90;;;;;;5028817;28;20088;-63
2022/03/09 07:34:00;;;;;;;10.10;4.63;;;3.00;99.90;;;;;;5029453;28;20036;-62
2022/03/09 07:36:26;;;;;;;12.13;4.75;;;3.10;99.90;;;;;;5030421;28;20045;-62
2022/03/09 07:38:52;;;;;;;10.60;4.55;;;3.30;99.90;;;;;;5029698;28;20032;-62
2022/03/09 07:41:17;;;;;;;14.45;5.95;;;3.50;99.90;;;;;;5029685;28;20033;-63
2022/03/09 07:43:43;;;;;;;14.40;6.05;;;3.60;99.90;;;;;;5028774;28;20037;-62
2022/03/09 07:46:09;;;;;;;12.52;4.95;;;3.70;99.90;;;;;;5031880;28;20770;-62
2022/03/09 07:48:35;;;;;;;15.80;5.28;;;3.90;99.90;;;;;;5028571;28;20175;-61
2022/03/09 07:51:00;;;;;;;12.52;4.15;;;4.00;99.90;;;;;;5028915;28;20472;-62
2022/03/09 07:53:26;;;;;;;13.10;4.82;;;4.10;99.90;;;;;;5029931;28;20056;-61
2022/03/09 07:55:52;;;;;;;12.18;5.18;;;4.40;99.60;;;;;;5029449;28;20061;-61
2022/03/09 07:58:17;;;;;;;13.15;4.65;;;4.60;98.90;;;;;;5029400;28;20041;-62
2022/03/09 08:00:43;;;;;;;11.50;4.72;;;4.90;97.40;;;;;;5029783;28;20057;-62
2022/03/09 08:03:08;;;;;;;13.80;4.75;;;5.10;98.10;;;;;;5028937;28;20124;-61
2022/03/09 08:05:34;;;;;;;11.45;4.95;;;5.20;97.30;;;;;;5029611;28;20045;-62
2022/03/09 08:08:00;;;;;;;12.27;4.97;;;5.30;95.60;;;;;;5029353;28;20029;-62
2022/03/09 08:10:25;;;;;;;17.75;5.82;;;5.30;95.70;;;;;;5028039;28;20037;-61
2022/03/09 08:12:51;;;;;;;12.32;3.58;;;5.30;95.40;;;;;;5028914;28;20132;-63
2022/03/09 08:15:17;;;;;;;13.75;4.68;;;5.40;95.20;;;;;;5028126;28;20045;-61
2022/03/09 08:17:42;;;;;;;16.20;4.45;;;5.40;95.00;;;;;;5029899;28;20063;-61
2022/03/09 08:20:08;;;;;;;11.30;4.80;;;5.50;95.60;;;;;;5028505;28;20034;-61
2022/03/09 08:22:34;;;;;;;9.88;4.47;;;5.50;94.80;;;;;;5029726;28;20495;-63
2022/03/09 08:24:59;;;;;;;9.23;4.40;;;5.70;94.30;;;;;;5028722;28;20048;-61
2022/03/09 08:27:25;;;;;;;12.18;4.20;;;5.80;95.20;;;;;;5029543;28;20435;-62
2022/03/09 08:29:51;;;;;;;12.60;4.85;;;5.90;93.80;;;;;;5027076;28;20048;-66
2022/03/09 08:32:19;;;;;;;13.68;5.25;;;6.00;93.70;;;;;;5027687;28;20033;-62
2022/03/09 08:34:45;;;;;;;12.60;4.72;;;6.10;92.60;;;;;;5029000;28;20099;-63
2022/03/09 08:37:10;;;;;;;13.63;4.75;;;6.20;92.80;;;;;;5038736;28;20040;-61
2022/03/09 08:39:36;;;;;;;12.15;4.63;;;6.20;92.60;;;;;;5029274;28;20088;-62
2022/03/09 08:42:02;;;;;;;12.15;4.40;;;6.30;93.70;;;;;;5027883;28;20447;-64
2022/03/09 08:44:28;;;;;;;12.55;4.78;;;6.40;93.00;;;;;;5027867;28;20041;-62
2022/03/09 08:46:53;;;;;;;10.02;4.63;;;6.60;92.70;;;;;;5028381;28;20059;-61
2022/03/09 08:49:19;;;;;;;11.30;5.20;;;6.60;92.30;;;;;;5028596;28;20068;-62
2022/03/09 08:51:45;;;;;;;9.88;4.45;;;6.70;91.70;;;;;;5026937;28;20033;-61
2022/03/09 08:54:11;;;;;;;10.88;3.97;;;6.80;91.30;;;;;;5028400;28;20050;-62
2022/03/09 08:56:36;;;;;;;13.23;5.15;;;6.80;92.10;;;;;;5028570;28;20033;-62
2022/03/09 08:59:02;;;;;;;12.65;4.72;;;7.00;91.10;;;;;;5028073;28;20035;-62
2022/03/09 09:01:28;;;;;;;10.35;3.60;;;7.00;90.90;;;;;;5028208;28;20049;-61
2022/03/09 09:03:54;;;;;;;10.77;4.20;;;7.10;90.50;;;;;;5028093;28;20035;-62
2022/03/09 09:06:19;;;;;;;12.35;4.53;;;7.20;90.50;;;;;;5028473;28;20626;-62
2022/03/09 09:08:45;;;;;;;11.73;5.32;;;7.30;90.20;;;;;;5029146;28;20033;-62
2022/03/09 09:11:10;;;;;;;14.82;4.55;;;7.40;89.90;;;;;;5027758;28;20063;-62
2022/03/09 09:13:36;;;;;;;10.07;4.97;;;7.50;87.50;;;;;;5028375;28;20046;-61
2022/03/09 09:16:02;;;;;;;8.95;4.15;;;7.50;90.10;;;;;;5029240;28;20699;-62
2022/03/09 09:18:28;;;;;;;14.27;5.55;;;7.50;90.00;;;;;;5027948;28;20068;-62
2022/03/09 09:20:54;;;;;;;11.35;4.60;;;7.70;89.60;;;;;;5027095;28;20460;-63
2022/03/09 09:23:20;;;;;;;9.48;4.50;;;7.80;89.60;;;;;;5028587;28;20037;-62
2022/03/09 09:25:47;;;;;;;9.88;5.32;;;7.90;87.30;;;;;;5028164;28;20389;-61
2022/03/09 09:28:14;;;;;;;11.63;4.43;;;8.00;86.00;;;;;;5027861;28;20402;-63
2022/03/09 09:30:40;;;;;;;9.65;4.55;;;8.00;87.90;;;;;;5027653;28;20055;-62
2022/03/09 09:33:05;;;;;;;9.00;4.32;;;8.10;86.80;;;;;;5027354;28;20037;-62
2022/03/09 09:35:31;;;;;;;11.05;4.80;;;8.30;86.50;;;;;;5027961;28;20136;-62
2022/03/09 09:37:57;;;;;;;10.25;4.20;;;8.30;85.30;;;;;;5027370;28;20079;-65
2022/03/09 09:40:24;;;;;;;16.50;5.18;;;8.40;86.00;;;;;;5028124;28;20401;-61
2022/03/09 09:42:50;;;;;;;9.68;4.22;;;8.40;85.20;;;;;;5026154;28;20030;-63
2022/03/09 09:45:16;;;;;;;13.07;5.38;;;8.50;87.00;;;;;;5025229;28;20041;-61
2022/03/09 09:47:42;;;;;;;18.23;5.60;;;8.50;86.10;;;;;;5025727;28;20052;-62
2022/03/09 09:50:13;;;;;;;16.50;5.22;;;8.50;86.90;;;;;;5026005;28;20096;-63
2022/03/09 09:52:40;;;;;;;10.95;5.00;;;8.60;87.20;;;;;;5026464;28;20034;-61
2022/03/09 09:55:07;;;;;;;11.32;5.07;;;8.60;86.80;;;;;;5025968;28;20030;-63
2022/03/09 09:57:33;;;;;;;12.90;5.95;;;8.70;86.10;;;;;;5025215;28;20079;-61
2022/03/09 09:59:59;;;;;;;15.45;5.35;;;8.80;86.40;;;;;;5025478;28;20402;-62
2022/03/09 10:02:25;;;;;;;15.82;4.90;;;8.80;84.90;;;;;;5024759;28;20041;-62
2022/03/09 10:04:51;;;;;;;11.00;4.85;;;8.90;86.70;;;;;;5027569;28;20041;-63
2022/03/09 10:07:17;;;;;;;18.98;5.95;;;8.90;86.90;;;;;;5027174;28;20116;-61
2022/03/09 10:09:44;;;;;;;12.23;5.00;;;9.00;83.50;;;;;;5027000;28;20034;-61
2022/03/09 10:12:13;;;;;;;12.68;4.40;;;8.90;83.20;;;;;;5023460;28;20036;-62
2022/03/09 10:14:51;;;;;;;13.95;5.47;;;9.00;83.40;;;;;;5025151;28;20041;-62
2022/03/09 10:17:23;;;;;;;11.77;5.13;;;8.90;84.40;;;;;;5039307;28;20048;-62
2022/03/09 10:19:52;;;;;;;14.52;5.50;;;8.90;84.10;;;;;;5024785;28;20047;-60
2022/03/09 10:22:32;;;;;;;11.35;5.30;;;9.00;82.50;;;;;;5026940;28;20030;-62
2022/03/09 10:25:17;;;;;;;13.82;5.70;;;9.00;84.10;;;;;;5026429;28;20083;-62
2022/03/09 10:27:50;;;;;;;11.85;5.10;;;9.10;84.20;;;;;;5024877;28;20036;-62
2022/03/09 10:30:19;;;;;;;11.60;4.85;;;9.20;83.00;;;;;;5025364;28;20041;-62
2022/03/09 10:32:54;;;;;;;14.35;5.45;;;9.20;82.90;;;;;;5026349;28;20172;-61
2022/03/09 10:35:31;;;;;;;11.70;5.05;;;9.30;80.60;;;;;;5025745;28;20044;-62
2022/03/09 10:38:02;;;;;;;11.68;4.30;;;9.30;81.00;;;;;;5026375;28;20076;-61
2022/03/09 10:40:30;;;;;;;15.70;5.65;;;9.30;80.80;;;;;;5026801;28;20413;-61
2022/03/09 10:43:18;;;;;;;15.52;5.28;;;9.40;81.50;;;;;;5025428;28;20039;-63
2022/03/09 10:46:01;;;;;;;11.82;5.72;;;9.50;80.30;;;;;;5027984;28;20033;-61
2022/03/09 10:48:57;;;;;;;14.55;5.05;;;9.60;79.50;;;;;;5026656;28;20045;-62
2022/03/09 10:51:39;;;;;;;12.32;4.88;;;9.70;79.70;;;;;;5025333;28;20053;-62
2022/03/09 10:54:08;;;;;;;12.95;4.80;;;9.70;78.80;;;;;;5028115;28;20612;-63
2022/03/09 10:56:35;;;;;;;14.48;4.88;;;9.90;79.60;;;;;;5030095;28;20044;-62
2022/03/09 10:59:14;;;;;;;10.60;4.93;;;10.00;76.20;;;;;;5029369;28;20041;-61
2022/03/09 11:01:41;;;;;;;18.52;6.20;;;10.00;76.20;;;;;;5030454;28;20033;-60
2022/03/09 11:04:11;;;;;;;17.48;5.13;;;10.00;78.10;;;;;;5026314;28;20029;-63
2022/03/09 11:06:40;;;;;;;12.35;5.72;;;10.20;77.30;;;;;;5029358;28;20022;-62
2022/03/09 11:09:06;;;;;;;14.32;5.63;;;10.20;76.00;;;;;;5028152;28;20044;-61
2022/03/09 11:11:31;;;;;;;14.98;5.65;;;10.20;76.40;;;;;;5028930;28;20022;-61
2022/03/09 11:13:58;;;;;;;12.38;5.22;;;10.30;75.90;;;;;;5028887;28;20042;-62
2022/03/09 11:16:24;;;;;;;12.07;5.38;;;10.30;77.50;;;;;;5029245;28;20114;-62
2022/03/09 11:18:50;;;;;;;12.90;5.65;;;10.30;76.50;;;;;;5028002;28;20459;-61
2022/03/09 11:21:16;;;;;;;16.33;6.45;;;10.40;75.90;;;;;;5027840;28;20040;-61
2022/03/09 11:23:42;;;;;;;14.93;5.93;;;10.40;76.90;;;;;;5026507;28;20164;-62
2022/03/09 11:26:19;;;;;;;18.15;7.43;;;10.50;76.70;;;;;;5038107;28;20125;-63
2022/03/09 11:28:45;;;;;;;16.73;6.80;;;10.50;76.10;;;;;;5021788;28;20068;-61
2022/03/09 11:31:17;;;;;;;24.05;7.18;;;10.50;76.90;;;;;;5026360;28;20033;-62
2022/03/09 11:33:45;;;;;;;13.77;6.63;;;10.60;76.90;;;;;;5027920;28;20026;-61
2022/03/09 11:36:29;;;;;;;24.83;7.40;;;10.70;76.00;;;;;;5027493;28;20076;-62
2022/03/09 11:39:03;;;;;;;20.27;7.15;;;10.70;75.60;;;;;;5029001;28;20057;-62
2022/03/09 11:41:36;;;;;;;15.80;6.55;;;10.70;74.90;;;;;;5025633;28;20030;-61
2022/03/09 11:44:34;;;;;;;16.38;7.00;;;10.70;74.60;;;;;;5026045;28;20038;-61
2022/03/09 11:47:00;;;;;;;17.25;6.30;;;10.80;75.10;;;;;;5006370;28;20033;-62
2022/03/09 11:49:36;;;;;;;22.52;6.45;;;10.90;74.40;;;;;;5027275;28;20041;-62
2022/03/09 11:52:13;;;;;;;19.75;6.90;;;10.90;75.50;;;;;;5029031;28;20045;-63
2022/03/09 11:54:40;;;;;;;21.65;7.45;;;10.90;75.00;;;;;;5026598;28;20029;-62
2022/03/09 11:57:07;;;;;;;18.52;6.32;;;11.00;74.80;;;;;;5029535;28;20045;-61
2022/03/09 11:59:32;;;;;;;20.13;7.05;;;11.00;74.70;;;;;;5033196;28;20037;-63
2022/03/09 12:01:58;;;;;;;18.80;7.03;;;11.00;75.60;;;;;;5035658;28;20037;-62
2022/03/09 12:04:42;;;;;;;19.27;7.65;;;11.10;76.30;;;;;;5033706;28;20037;-62
2022/03/09 12:07:09;;;;;;;15.63;6.97;;;11.20;73.30;;;;;;5027009;28;20052;-61
2022/03/09 12:09:53;;;;;;;19.35;8.10;;;11.30;72.20;;;;;;5030304;28;20120;-62
2022/03/09 12:12:19;;;;;;;20.98;7.05;;;11.40;72.40;;;;;;5027645;28;20037;-62
2022/03/09 12:15:12;;;;;;;16.65;6.85;;;11.40;71.70;;;;;;5032610;28;20056;-61
2022/03/09 12:17:43;;;;;;;17.40;6.82;;;11.50;71.00;;;;;;5026766;28;20754;-62
2022/03/09 12:20:28;;;;;;;19.83;7.00;;;11.60;71.80;;;;;;5029408;28;20041;-61
2022/03/09 12:22:56;;;;;;;17.02;7.82;;;11.60;70.50;;;;;;5029718;28;20037;-66
2022/03/09 12:25:37;;;;;;;22.05;7.93;;;11.70;69.90;;;;;;5033034;28;20068;-62
2022/03/09 12:28:22;;;;;;;19.08;8.48;;;11.80;69.70;;;;;;5028147;28;20040;-61
2022/03/09 12:30:48;;;;;;;18.95;7.55;;;11.90;69.70;;;;;;5028344;28;20088;-61
2022/03/09 12:33:25;;;;;;;19.52;8.18;;;12.00;69.20;;;;;;5029378;28;20053;-63
2022/03/09 12:35:53;;;;;;;20.52;6.88;;;12.00;68.90;;;;;;5027074;28;20565;-62
2022/03/09 12:38:18;;;;;;;20.58;8.02;;;12.00;68.90;;;;;;5029713;28;20045;-61
2022/03/09 12:40:47;;;;;;;20.83;7.13;;;12.10;68.20;;;;;;5028229;28;20528;-63
2022/03/09 12:43:16;;;;;;;18.75;8.05;;;12.10;68.50;;;;;;5026307;28;20060;-62
2022/03/09 12:45:55;;;;;;;18.60;7.20;;;12.10;68.60;;;;;;5044009;28;20037;-62
2022/03/09 12:48:22;;;;;;;21.17;8.38;;;12.10;68.50;;;;;;5029193;28;20030;-61